Time;durP1;ratioP1;P1;durP2;ratioP2;P2;SDS_P1;SDS_P2;PMS_P1;PMS_P2;Temp;Humidity;BMP_temperature;BMP_pressure;BME280_temperature;BME280_humidity;BME280_pressure;Samples;Min_cycle;Max_cycle;Signal;HPM_P1;HPM_P2
2022/04/24 00:05:27;;;;;;;1999.90;999.90;;;;;;;11.18;54.49;100222.53;15809372;28;20067;-60
2022/04/24 00:13:03;;;;;;;1999.90;999.90;;;;;;;10.96;55.32;100211.84;15807345;28;20052;-62
2022/04/24 00:20:35;;;;;;;1999.90;999.90;;;;;;;10.98;54.83;100204.72;15806870;28;20119;-62
2022/04/24 00:28:09;;;;;;;1999.90;999.90;;;;;;;10.76;55.91;100187.63;15788371;28;20048;-62
2022/04/24 00:35:42;;;;;;;1999.90;999.90;;;;;;;10.64;55.76;100171.69;15806046;28;20044;-62
2022/04/24 00:43:16;;;;;;;1999.90;999.90;;;;;;;10.67;56.24;100180.16;15805385;28;20040;-61
2022/04/24 00:51:20;;;;;;;1999.90;999.90;;;;;;;10.50;56.45;100171.16;15786885;28;20036;-60
2022/04/24 00:58:55;;;;;;;1999.90;999.90;;;;;;;10.45;57.03;100161.06;15772929;28;20052;-62
2022/04/24 01:06:34;;;;;;;1999.90;999.90;;;;;;;10.45;56.71;100180.59;15857462;28;20043;-61
2022/04/24 01:14:08;;;;;;;1999.90;999.90;;;;;;;10.27;57.57;100163.22;15751082;22;20425;-74
2022/04/24 01:21:46;;;;;;;1999.90;999.90;;;;;;;10.35;57.67;100169.88;15678505;28;20194;-75
2022/04/24 01:29:19;;;;;;;1999.90;999.90;;;;;;;9.98;58.92;100150.19;15748519;22;20291;-60
2022/04/24 01:36:52;;;;;;;1999.90;999.90;;;;;;;10.00;59.03;100152.63;15794885;28;20207;-57
2022/04/24 01:44:25;;;;;;;1999.90;999.90;;;;;;;9.86;59.08;100146.56;15779082;28;20123;-57
2022/04/24 01:51:58;;;;;;;1999.90;999.90;;;;;;;9.95;59.13;100147.28;15794415;28;20054;-58
2022/04/24 01:59:30;;;;;;;1999.90;999.90;;;;;;;9.74;60.12;100139.78;15782440;28;20173;-55
2022/04/24 02:07:06;;;;;;;1999.90;999.90;;;;;;;9.77;60.02;100144.66;15773821;28;20036;-57
2022/04/24 02:14:40;;;;;;;1999.90;999.90;;;;;;;9.46;61.17;100139.50;15763071;28;20413;-59
2022/04/24 02:22:15;;;;;;;1999.90;999.90;;;;;;;9.49;61.25;100135.25;15809343;28;20082;-59
2022/04/24 02:29:50;;;;;;;1999.90;999.90;;;;;;;9.51;61.40;100122.59;15759454;28;20071;-53
2022/04/24 02:37:23;;;;;;;1999.90;999.90;;;;;;;9.42;61.71;100116.28;15741093;28;20101;-54
2022/04/24 02:44:56;;;;;;;1999.90;999.90;;;;;;;9.31;62.32;100109.50;15777013;28;20044;-55
2022/04/24 02:52:32;;;;;;;1999.90;999.90;;;;;;;9.15;62.77;100105.69;15806519;28;20044;-56
2022/04/24 03:00:07;;;;;;;;;;;;;;;9.25;62.81;100103.31;15806094;28;20068;-59
2022/04/24 03:07:41;;;;;;;1999.90;999.90;;;;;;;9.08;63.44;100099.84;15802841;28;19954;-53
2022/04/24 03:15:16;;;;;;;1999.90;999.90;;;;;;;8.97;63.46;100082.72;15797890;28;20446;-53
2022/04/24 03:22:50;;;;;;;1999.90;999.90;;;;;;;8.73;64.62;100085.31;15736430;28;20068;-56
2022/04/24 03:30:22;;;;;;;;;;;;;;;8.86;64.09;100073.16;15737906;28;20041;-56
2022/04/24 03:37:56;;;;;;;1999.90;999.90;;;;;;;8.48;65.61;100079.56;15738146;28;19924;-53
2022/04/24 03:45:28;;;;;;;1999.90;999.90;;;;;;;8.62;65.12;100073.75;15736153;28;20044;-57
2022/04/24 03:53:02;;;;;;;1999.90;999.90;;;;;;;8.43;65.64;100078.94;15755011;28;20465;-55
2022/04/24 04:00:34;;;;;;;1999.90;999.90;;;;;;;8.50;65.44;100091.16;15766433;28;20044;-58
2022/04/24 04:08:08;;;;;;;1999.90;999.90;;;;;;;8.54;65.37;100089.34;15757549;28;20052;-59
2022/04/24 04:15:41;;;;;;;1999.90;999.90;;;;;;;8.51;65.64;100083.63;15789918;28;20044;-56
2022/04/24 04:23:14;;;;;;;1999.90;999.90;;;;;;;8.49;66.15;100085.94;15732592;28;20083;-56
2022/04/24 04:30:47;;;;;;;1999.90;999.90;;;;;;;8.63;65.39;100083.72;15733398;28;20375;-56
2022/04/24 04:38:20;;;;;;;1999.90;999.90;;;;;;;8.67;65.45;100079.97;15789097;28;20099;-53
2022/04/24 04:45:53;;;;;;;1999.90;999.90;;;;;;;8.77;65.25;100086.31;15794563;28;20123;-56
2022/04/24 04:53:32;;;;;;;1999.90;999.90;;;;;;;8.88;65.13;100091.13;15793749;28;20468;-56
2022/04/24 05:01:04;;;;;;;1999.90;999.90;;;;;;;9.14;63.88;100092.91;15793275;28;20184;-59
2022/04/24 05:08:38;;;;;;;1999.90;999.90;;;;;;;9.53;62.86;100086.88;15771632;28;20041;-59
2022/04/24 05:16:10;;;;;;;1999.90;999.90;;;;;;;9.99;61.23;100086.91;15715703;28;20053;-52
2022/04/24 05:23:46;;;;;;;1999.90;999.90;;;;;;;10.35;60.98;100095.38;15730930;28;20065;-54
2022/04/24 05:31:18;;;;;;;1999.90;999.90;;;;;;;10.76;59.13;100096.34;15737288;28;20109;-54
2022/04/24 05:38:52;;;;;;;1999.90;999.90;;;;;;;11.01;58.30;100090.72;15725410;28;20052;-55
2022/04/24 05:46:24;;;;;;;;;;;;;;;11.57;56.09;100092.47;15785813;28;20059;-53
2022/04/24 05:53:57;;;;;;;1999.90;999.90;;;;;;;11.55;55.99;100091.19;15770693;28;20359;-54
2022/04/24 06:01:29;;;;;;;1999.90;999.90;;;;;;;11.97;54.23;100097.19;15766740;28;20036;-53
2022/04/24 06:09:03;;;;;;;1999.90;999.90;;;;;;;12.52;52.88;100098.28;15805700;28;20074;-55
2022/04/24 06:16:36;;;;;;;1999.90;999.90;;;;;;;13.24;51.15;100084.84;15802108;28;20044;-52
2022/04/24 06:24:09;;;;;;;1999.90;999.90;;;;;;;13.26;51.53;100088.06;15802283;28;20392;-54
2022/04/24 06:31:42;;;;;;;;;;;;;;;14.79;48.23;100084.59;15755198;28;20482;-53
2022/04/24 06:39:15;;;;;;;1999.90;999.90;;;;;;;15.07;48.67;100077.81;15739679;28;19927;-52
2022/04/24 06:46:47;;;;;;;;;;;;;;;14.68;47.58;100075.19;15738949;28;20204;-54
2022/04/24 06:54:21;;;;;;;1999.90;999.90;;;;;;;15.24;46.90;100086.50;15740151;28;19920;-59
2022/04/24 07:01:53;;;;;;;;;;;;;;;15.68;46.35;100076.66;15758689;28;20044;-55
2022/04/24 07:09:29;;;;;;;1999.90;999.90;;;;;;;15.64;45.26;100076.63;15809759;22;20019;-63
2022/04/24 07:17:01;;;;;;;1999.90;999.90;;;;;;;16.85;44.51;100072.22;15667401;28;20051;-62
2022/04/24 07:24:35;;;;;;;1999.90;999.90;;;;;;;16.71;43.42;100058.03;15683449;28;20036;-61
2022/04/24 07:32:08;;;;;;;1999.90;999.90;;;;;;;16.50;43.34;100061.44;15683919;28;20123;-62
2022/04/24 07:39:42;;;;;;;;;;;;;;;18.28;42.19;100050.31;15682365;28;20041;-63
2022/04/24 07:47:14;;;;;;;;;;;;;;;17.55;41.52;100047.66;15664674;28;20297;-63
2022/04/24 07:54:47;;;;;;;1999.90;999.90;;;;;;;18.07;41.13;100034.16;15679847;28;19920;-62
2022/04/24 08:02:20;;;;;;;1999.90;999.90;;;;;;;19.78;38.85;100031.09;15678776;28;20521;-63
2022/04/24 08:09:53;;;;;;;1999.90;999.90;;;;;;;18.45;40.19;100033.41;15707630;28;20516;-63
2022/04/24 08:17:26;;;;;;;1999.90;999.90;;;;;;;18.30;39.95;100026.13;15714778;28;20493;-62
2022/04/24 08:25:00;;;;;;;;;;;;;;;18.17;40.00;100022.06;15713745;28;20140;-63
2022/04/24 08:32:32;;;;;;;;;;;;;;;18.38;39.06;100024.09;15680909;28;19985;-61
2022/04/24 08:40:08;;;;;;;1999.90;999.90;;;;;;;18.70;38.77;100029.78;15689449;28;19920;-63
2022/04/24 08:47:42;;;;;;;1999.90;999.90;;;;;;;19.40;37.18;100016.72;15740695;28;20045;-63
2022/04/24 08:55:16;;;;;;;1999.90;999.90;;;;;;;19.71;36.31;100017.00;15740276;28;20366;-62
2022/04/24 09:02:49;;;;;;;1999.90;999.90;;;;;;;20.56;35.35;100022.13;15737685;28;20049;-62
2022/04/24 09:10:22;;;;;;;1999.90;999.90;;;;;;;21.48;34.87;100008.25;15740110;28;20052;-63
2022/04/24 09:18:00;;;;;;;1999.90;999.90;;;;;;;20.36;36.86;100013.34;15681046;28;20053;-62
2022/04/24 09:25:40;;;;;;;1999.90;999.90;;;;;;;22.51;32.90;100009.59;15677000;28;20040;-63
2022/04/24 09:33:13;;;;;;;1999.90;999.90;;;;;;;21.84;33.38;100006.53;15677048;28;20045;-63
2022/04/24 09:40:48;;;;;;;1999.90;999.90;;;;;;;22.18;32.15;100005.66;15675231;28;20136;-63
2022/04/24 09:48:21;;;;;;;1999.90;999.90;;;;;;;22.63;31.77;99994.78;15674586;28;20299;-63
2022/04/24 09:55:56;;;;;;;1999.90;999.90;;;;;;;23.20;30.17;99996.56;15712672;28;20410;-63
2022/04/24 10:03:29;;;;;;;1999.90;999.90;;;;;;;23.72;30.65;99995.94;15711756;28;20049;-63
2022/04/24 10:11:04;;;;;;;1999.90;999.90;;;;;;;21.96;29.25;99998.66;15710404;28;20049;-62
2022/04/24 10:18:50;;;;;;;1999.90;999.90;;;;;;;21.68;31.79;99985.69;15680873;28;20048;-63
2022/04/24 10:26:24;;;;;;;1999.90;999.90;;;;;;;22.46;29.69;99988.16;15700793;28;20040;-62
2022/04/24 10:33:56;;;;;;;1999.90;999.90;;;;;;;22.32;29.45;99988.41;15749002;28;20048;-62
2022/04/24 10:41:31;;;;;;;1999.90;999.90;;;;;;;20.51;30.28;99974.38;15751050;28;20101;-62
2022/04/24 10:49:08;;;;;;;1999.90;999.90;;;;;;;23.06;27.63;99968.41;15746720;28;20055;-62
2022/04/24 10:56:45;;;;;;;1999.90;999.90;;;;;;;19.99;32.59;99982.06;15747947;28;20111;-63
2022/04/24 11:04:19;;;;;;;1999.90;999.90;;;;;;;21.27;31.66;99970.38;15702339;28;20103;-62
2022/04/24 11:12:01;;;;;;;1999.90;999.90;;;;;;;20.12;32.84;99969.03;15684129;28;20049;-62
2022/04/24 11:19:36;;;;;;;1999.90;999.90;;;;;;;20.57;32.46;99967.06;15682134;28;20056;-63
2022/04/24 11:27:11;;;;;;;1999.90;999.90;;;;;;;20.91;32.90;99960.63;15682334;28;20037;-63
2022/04/24 11:34:44;;;;;;;1999.90;999.90;;;;;;;21.93;31.14;99952.03;15669838;28;20181;-62
2022/04/24 11:42:19;;;;;;;1999.90;999.90;;;;;;;21.01;31.86;99952.00;15684640;28;20044;-62
2022/04/24 11:57:47;;;;;;;1999.90;999.90;;;;;;;20.82;32.79;99951.81;15680151;28;20053;-59
2022/04/24 12:05:19;;;;;;;1999.90;999.90;;;;;;;22.95;30.12;99939.38;15732018;28;20055;-61
2022/04/24 12:12:56;;;;;;;1999.90;999.90;;;;;;;23.72;28.35;99919.03;15742269;28;20090;-61
2022/04/24 12:20:35;;;;;;;1999.90;999.90;;;;;;;21.03;31.17;99917.53;15724213;28;20052;-61
2022/04/24 12:28:09;;;;;;;1999.90;999.90;;;;;;;21.06;32.18;99922.38;15731486;28;20064;-62
2022/04/24 12:35:41;;;;;;;1999.90;999.90;;;;;;;20.61;32.74;99910.31;15675587;28;20040;-62
2022/04/24 12:43:24;;;;;;;1999.90;999.90;;;;;;;20.88;31.08;99899.91;15698968;28;20037;-61
2022/04/24 12:50:56;;;;;;;;;;;;;;;23.06;27.05;99883.06;15737422;28;20294;-62
2022/04/24 12:58:30;;;;;;;1999.90;999.90;;;;;;;23.54;26.83;99887.28;15688890;28;19928;-62
2022/04/24 13:06:03;;;;;;;1999.90;999.90;;;;;;;20.43;30.94;99887.84;15677484;28;20494;-61
2022/04/24 13:13:37;;;;;;;1999.90;999.90;;;;;;;23.89;26.66;99860.06;15712846;28;20048;-62
2022/04/24 13:21:10;;;;;;;1999.90;999.90;;;;;;;20.86;29.80;99859.03;15738716;28;20052;-63
2022/04/24 13:28:43;;;;;;;1999.90;999.90;;;;;;;24.38;26.11;99857.97;15739142;28;20446;-62
2022/04/24 13:36:16;;;;;;;1999.90;999.90;;;;;;;26.53;24.41;99846.47;15738752;28;20416;-63
2022/04/24 13:43:49;;;;;;;1999.90;999.90;;;;;;;22.56;27.51;99846.25;15735652;28;20090;-62
2022/04/24 13:51:22;;;;;;;1999.90;999.90;;;;;;;20.14;32.03;99850.47;15680707;28;20056;-62
2022/04/24 13:58:55;;;;;;;1999.90;999.90;;;;;;;20.83;30.33;99828.69;15688117;28;20122;-62
2022/04/24 14:06:28;;;;;;;1999.90;999.90;;;;;;;20.53;29.58;99829.44;15687621;28;20436;-63
2022/04/24 14:14:02;;;;;;;1999.90;999.90;;;;;;;20.41;30.97;99830.75;15687668;28;20106;-62
2022/04/24 14:21:34;;;;;;;1999.90;999.90;;;;;;;20.48;31.11;99813.72;15687836;28;20060;-63
2022/04/24 14:29:08;;;;;;;1999.90;999.90;;;;;;;19.11;32.65;99822.91;15687076;28;20362;-63
2022/04/24 14:36:40;;;;;;;1999.90;999.90;;;;;;;19.83;33.19;99836.19;15686412;28;20411;-63
2022/04/24 14:44:14;;;;;;;1999.90;999.90;;;;;;;19.95;33.52;99834.84;15691657;28;20504;-61
2022/04/24 14:59:46;;;;;;;1999.90;999.90;;;;;;;19.10;33.39;99846.75;15606788;28;20076;-62
2022/04/24 15:07:18;;;;;;;1999.90;999.90;;;;;;;19.10;33.04;99830.59;15684664;28;20041;-62
2022/04/24 15:14:51;;;;;;;1999.90;999.90;;;;;;;19.12;33.67;99839.47;15703373;28;20045;-62
2022/04/24 15:22:24;;;;;;;1999.90;999.90;;;;;;;18.73;34.37;99834.78;15726950;28;20136;-62
2022/04/24 15:29:58;;;;;;;1999.90;999.90;;;;;;;18.71;35.02;99837.22;15691829;28;20049;-62
2022/04/24 15:37:33;;;;;;;1999.90;999.90;;;;;;;18.68;34.92;99840.06;15682856;28;20299;-62
2022/04/24 15:45:13;;;;;;;1999.90;999.90;;;;;;;18.82;34.25;99847.69;15701352;28;20110;-61
2022/04/24 15:52:47;;;;;;;1999.90;999.90;;;;;;;18.59;34.94;99843.31;15742680;28;20090;-61
2022/04/24 16:00:21;;;;;;;;;;;;;;;18.38;34.65;99838.50;15749380;28;20051;-60
2022/04/24 16:07:55;;;;;;;1999.90;999.90;;;;;;;18.33;34.77;99850.22;15743413;28;20468;-62
2022/04/24 16:15:29;;;;;;;1999.90;999.90;;;;;;;18.31;34.99;99858.28;15734907;28;20029;-61
2022/04/24 16:23:01;;;;;;;1999.90;999.90;;;;;;;18.02;37.75;99853.88;15678416;28;20048;-62
2022/04/24 16:30:36;;;;;;;1999.90;999.90;;;;;;;17.72;39.39;99865.59;15680022;28;20571;-62
2022/04/24 16:38:08;;;;;;;1999.90;999.90;;;;;;;17.60;42.14;99873.19;15679366;28;20041;-61
2022/04/24 16:45:42;;;;;;;1999.90;999.90;;;;;;;17.24;47.11;99866.69;15677681;28;20033;-62
2022/04/24 17:01:10;;;;;;;1999.90;999.90;;;;;;;17.04;49.84;99882.31;15662314;28;20131;-62
2022/04/24 17:08:42;;;;;;;1999.90;999.90;;;;;;;17.01;50.79;99888.75;15676414;28;20076;-61
2022/04/24 17:16:16;;;;;;;1999.90;999.90;;;;;;;16.82;51.04;99889.06;15689965;28;20068;-62
2022/04/24 17:23:49;;;;;;;1999.90;999.90;;;;;;;16.77;53.27;99911.97;15740611;28;20047;-61
2022/04/24 17:31:23;;;;;;;1999.90;999.90;;;;;;;16.69;54.71;99911.16;15752140;28;20095;-61
2022/04/24 17:38:55;;;;;;;1999.90;999.90;;;;;;;16.78;58.02;99916.41;15739737;28;20178;-62
2022/04/24 17:46:29;;;;;;;1999.90;999.90;;;;;;;16.29;56.62;99915.69;15751073;28;20037;-62
2022/04/24 17:54:03;;;;;;;1999.90;999.90;;;;;;;16.17;56.46;99916.81;15751414;28;20064;-62
2022/04/24 18:01:37;;;;;;;1999.90;999.90;;;;;;;16.22;55.84;99915.63;15750384;28;20044;-62
2022/04/24 18:09:11;;;;;;;1999.90;999.90;;;;;;;16.21;55.19;99916.81;15751363;28;20068;-62
2022/04/24 18:16:45;;;;;;;1999.90;999.90;;;;;;;15.90;55.39;99923.00;15715706;28;20049;-62
2022/04/24 18:24:19;;;;;;;1999.90;999.90;;;;;;;16.06;55.42;99935.63;15696307;28;20048;-62
2022/04/24 18:31:53;;;;;;;1999.90;999.90;;;;;;;15.86;55.36;99985.66;15695787;28;20500;-62
2022/04/24 18:39:26;;;;;;;;;;;;;;;15.44;54.24;100011.28;15742715;28;20029;-62
2022/04/24 18:47:01;;;;;;;1999.90;999.90;;;;;;;15.38;56.97;100006.38;15684867;28;19931;-62
2022/04/24 18:54:34;;;;;;;1999.90;999.90;;;;;;;15.52;62.06;100027.00;15684614;28;20037;-61
2022/04/24 19:02:09;;;;;;;1999.90;999.90;;;;;;;15.53;59.91;100028.66;15719379;28;20211;-62
2022/04/24 19:17:32;;;;;;;1529.32;775.28;;;;;;;14.83;66.43;100034.13;15739474;28;20067;-60
2022/04/24 19:25:05;;;;;;;;;;;;;;;14.29;70.75;100046.44;15738819;28;20053;-61
2022/04/24 19:32:39;;;;;;;264.27;240.95;;;;;;;13.86;72.67;100057.69;15738967;28;19928;-61
2022/04/24 19:40:13;;;;;;;213.25;197.70;;;;;;;13.60;74.81;100074.38;15738310;28;20064;-59
2022/04/24 19:55:41;;;;;;;240.93;221.70;;;;;;;13.83;74.90;100066.81;15735508;28;20045;-61
2022/04/24 20:03:18;;;;;;;238.38;219.90;;;;;;;13.97;74.28;100080.34;15737127;28;20097;-61
2022/04/24 20:10:53;;;;;;;237.15;219.27;;;;;;;13.73;75.87;100078.63;15735227;28;20051;-60
2022/04/24 20:18:33;;;;;;;255.32;234.10;;;;;;;13.98;74.96;100097.97;15734593;28;20033;-62
2022/04/24 20:26:06;;;;;;;329.60;303.30;;;;;;;13.77;73.90;100093.56;15736467;28;20044;-60
2022/04/24 20:34:01;;;;;;;334.45;308.00;;;;;;;13.04;75.29;100102.75;15746028;28;20164;-60
2022/04/24 20:41:50;;;;;;;263.35;240.90;;;;;;;12.93;74.85;100101.69;15762275;28;20052;-61
2022/04/24 20:49:43;;;;;;;303.65;276.90;;;;;;;13.00;75.07;100105.44;15778847;28;20036;-60
2022/04/24 20:57:33;;;;;;;258.25;235.13;;;;;;;12.45;75.51;100102.88;15733578;28;20063;-61
2022/04/24 21:05:07;;;;;;;252.23;228.88;;;;;;;12.34;74.11;100111.78;15736056;28;20127;-61
2022/04/24 21:12:39;;;;;;;140.95;128.00;;;;;;;12.27;74.12;100113.59;15795309;28;20419;-62
2022/04/24 21:20:12;;;;;;;206.68;186.75;;;;;;;12.27;73.50;100122.78;15794270;28;20041;-62
2022/04/24 21:27:44;;;;;;;1999.90;999.90;;;;;;;11.71;73.91;100133.97;15797611;28;20036;-60
2022/04/24 21:35:23;;;;;;;1999.90;999.90;;;;;;;11.45;73.37;100139.97;15795710;28;20480;-61
2022/04/24 21:42:55;;;;;;;699.63;429.55;;;;;;;11.55;74.49;100147.06;15761129;28;20267;-62
2022/04/24 21:50:29;;;;;;;1549.20;794.63;;;;;;;11.40;73.21;100143.03;15732652;28;20079;-61
2022/04/24 21:58:01;;;;;;;637.80;373.13;;;;;;;11.63;72.62;100146.09;15732222;28;20158;-62
2022/04/24 22:05:35;;;;;;;1999.90;999.90;;;;;;;11.21;73.62;100154.81;15737491;28;20053;-62
2022/04/24 22:13:07;;;;;;;1999.90;999.90;;;;;;;11.34;72.93;100161.19;15741979;28;20048;-62
2022/04/24 22:20:41;;;;;;;1999.90;999.90;;;;;;;10.94;73.96;100163.88;15752805;28;20477;-60
2022/04/24 22:28:13;;;;;;;;;;;;;;;10.85;74.54;100183.56;15746842;28;20052;-61
2022/04/24 22:35:47;;;;;;;1999.90;999.90;;;;;;;10.54;75.40;100170.16;15747643;28;19939;-60
2022/04/24 22:43:19;;;;;;;1999.90;999.90;;;;;;;10.63;74.38;100184.81;15746185;28;20135;-59
2022/04/24 22:50:53;;;;;;;1999.90;999.90;;;;;;;10.30;75.54;100195.19;15743686;28;20048;-59
2022/04/24 22:58:25;;;;;;;626.10;364.27;;;;;;;10.53;75.75;100187.25;15744805;28;20114;-61
2022/04/24 23:05:59;;;;;;;213.25;196.07;;;;;;;10.40;76.85;100192.75;15743817;28;20043;-60
2022/04/24 23:13:32;;;;;;;;;;;;;;;10.43;75.55;100191.28;15743723;28;20408;-61
2022/04/24 23:21:05;;;;;;;1999.90;999.90;;;;;;;10.27;74.77;100201.44;15740747;28;20312;-61
2022/04/24 23:28:37;;;;;;;1999.90;999.90;;;;;;;9.96;75.43;100207.44;15741390;28;20036;-61
2022/04/24 23:36:11;;;;;;;1999.90;999.90;;;;;;;9.95;75.43;100211.38;15741303;28;20041;-61
2022/04/24 23:43:43;;;;;;;1999.90;999.90;;;;;;;10.01;74.72;100215.63;15782882;28;20040;-61
2022/04/24 23:51:17;;;;;;;1999.90;999.90;;;;;;;10.17;74.25;100213.00;15801501;28;20047;-59
2022/04/24 23:58:49;;;;;;;1999.90;999.90;;;;;;;9.94;74.65;100218.13;15802096;28;20107;-61
